Time;durP1;ratioP1;P1;durP2;ratioP2;P2;SDS_P1;SDS_P2;PMS_P1;PMS_P2;Temp;Humidity;BMP_temperature;BMP_pressure;BME280_temperature;BME280_humidity;BME280_pressure;Samples;Min_cycle;Max_cycle;Signal;HPM_P1;HPM_P2
2021/12/21 00:02:22;;;;;;;9.17;6.37;;;;;;;;;;6176776;28;20238;-66
2021/12/21 00:05:46;;;;;;;7.03;6.00;;;;;;;;;;6189805;28;20244;-67
2021/12/21 00:09:07;;;;;;;9.43;5.77;;;;;;;;;;6190365;28;20233;-66
2021/12/21 00:12:31;;;;;;;6.73;5.90;;;;;;;;;;6192077;28;20265;-65
2021/12/21 00:15:59;;;;;;;7.30;6.23;;;;;;;;;;6180604;28;20224;-68
2021/12/21 00:19:44;;;;;;;10.70;6.57;;;;;;;;;;6178612;28;20229;-66
2021/12/21 00:26:53;;;;;;;9.03;6.43;;;;;;;;;;6146403;28;20607;-67
2021/12/21 00:30:14;;;;;;;8.67;6.33;;;;;;;;;;6157999;28;20235;-67
2021/12/21 00:33:39;;;;;;;6.67;5.57;;;;;;;;;;6175958;28;20298;-68
2021/12/21 00:37:00;;;;;;;7.27;5.97;;;;;;;;;;6180705;28;20225;-66
2021/12/21 00:40:22;;;;;;;8.40;6.10;;;;;;;;;;6174576;28;20234;-67
2021/12/21 00:43:43;;;;;;;10.17;7.50;;;;;;;;;;6162766;28;20237;-68
2021/12/21 00:47:04;;;;;;;7.60;6.83;;;;;;;;;;6184372;28;20230;-66
2021/12/21 00:50:25;;;;;;;9.40;6.67;;;;;;;;;;6183361;28;20222;-67
2021/12/21 00:53:46;;;;;;;8.00;6.00;;;;;;;;;;6182654;28;20320;-66
2021/12/21 00:57:09;;;;;;;8.23;6.93;;;;;;;;;;6186587;28;20316;-66
2021/12/21 01:00:31;;;;;;;7.97;6.97;;;;;;;;;;6184499;28;20234;-66
2021/12/21 01:03:53;;;;;;;7.73;6.10;;;;;;;;;;6190032;28;20241;-66
2021/12/21 01:07:21;;;;;;;8.17;7.37;;;;;;;;;;6185173;28;20226;-67
2021/12/21 01:11:00;;;;;;;11.47;7.37;;;;;;;;;;6185436;28;20234;-67
2021/12/21 01:14:54;;;;;;;8.63;6.23;;;;;;;;;;6185940;28;20230;-66
2021/12/21 01:18:18;;;;;;;11.07;6.10;;;;;;;;;;6183013;28;20541;-67
2021/12/21 01:21:47;;;;;;;9.83;6.27;;;;;;;;;;6186134;28;20241;-68
2021/12/21 01:25:20;;;;;;;8.97;6.93;;;;;;;;;;6186805;28;20321;-66
2021/12/21 01:28:47;;;;;;;7.70;6.30;;;;;;;;;;6184147;28;20664;-67
2021/12/21 01:32:17;;;;;;;6.23;5.30;;;;;;;;;;6184976;28;20240;-66
2021/12/21 01:35:42;;;;;;;7.50;5.93;;;;;;;;;;6187307;28;20241;-68
2021/12/21 01:39:11;;;;;;;10.27;5.70;;;;;;;;;;6180924;28;20603;-66
2021/12/21 01:42:48;;;;;;;6.07;5.47;;;;;;;;;;6185373;28;20237;-66
2021/12/21 01:49:50;;;;;;;8.10;6.17;;;;;;;;;;6186946;28;20679;-67
2021/12/21 01:53:11;;;;;;;8.37;6.17;;;;;;;;;;6168002;28;20230;-67
2021/12/21 01:56:31;;;;;;;11.00;6.40;;;;;;;;;;6185003;28;20238;-67
2021/12/21 01:59:52;;;;;;;8.03;5.83;;;;;;;;;;6183432;28;20245;-66
2021/12/21 02:03:13;;;;;;;9.07;5.43;;;;;;;;;;6161441;28;20237;-67
2021/12/21 02:06:36;;;;;;;6.87;6.10;;;;;;;;;;6188748;28;20526;-67
2021/12/21 02:09:57;;;;;;;8.80;5.47;;;;;;;;;;6186051;28;20265;-66
2021/12/21 02:13:17;;;;;;;7.70;5.80;;;;;;;;;;6187210;28;20222;-67
2021/12/21 02:16:48;;;;;;;12.10;7.20;;;;;;;;;;6186404;28;20242;-67
2021/12/21 02:20:18;;;;;;;8.10;6.30;;;;;;;;;;6191354;28;20237;-66
2021/12/21 02:23:41;;;;;;;7.10;6.27;;;;;;;;;;6182305;28;20221;-68
2021/12/21 02:27:17;;;;;;;7.17;6.20;;;;;;;;;;6186311;28;20527;-66
2021/12/21 02:30:41;;;;;;;9.93;6.80;;;;;;;;;;6188134;28;20344;-67
2021/12/21 02:34:02;;;;;;;6.97;5.43;;;;;;;;;;6190792;28;20249;-67
2021/12/21 02:37:24;;;;;;;8.03;5.00;;;;;;;;;;6189565;28;20230;-65
2021/12/21 02:40:45;;;;;;;9.67;6.87;;;;;;;;;;6184847;28;20234;-66
2021/12/21 02:44:07;;;;;;;6.63;5.63;;;;;;;;;;6184616;28;20237;-67
2021/12/21 02:47:27;;;;;;;7.33;6.20;;;;;;;;;;6183790;28;20234;-66
2021/12/21 02:50:48;;;;;;;8.17;6.67;;;;;;;;;;6184772;28;22128;-66
2021/12/21 02:54:12;;;;;;;6.80;6.07;;;;;;;;;;6181761;28;20237;-66
2021/12/21 02:57:33;;;;;;;10.43;7.43;;;;;;;;;;6180613;28;20563;-67
2021/12/21 03:00:55;;;;;;;7.30;5.83;;;;;;;;;;6181110;28;20304;-67
2021/12/21 03:04:16;;;;;;;9.93;6.57;;;;;;;;;;6181016;28;20230;-66
2021/12/21 03:08:04;;;;;;;7.93;7.23;;;;;;;;;;6181738;28;20222;-67
2021/12/21 03:11:47;;;;;;;9.93;6.93;;;;;;;;;;6180062;28;20705;-66
2021/12/21 03:15:08;;;;;;;8.37;6.70;;;;;;;;;;6182174;28;20603;-68
2021/12/21 03:18:29;;;;;;;6.27;5.67;;;;;;;;;;6180460;28;20233;-66
2021/12/21 03:21:50;;;;;;;8.40;6.63;;;;;;;;;;6166704;28;20256;-66
2021/12/21 03:25:12;;;;;;;9.13;5.70;;;;;;;;;;6184838;28;20927;-67
2021/12/21 03:28:34;;;;;;;6.30;5.63;;;;;;;;;;6183274;28;20222;-67
2021/12/21 03:31:55;;;;;;;5.87;5.27;;;;;;;;;;6179576;28;20233;-66
2021/12/21 03:35:16;;;;;;;7.73;5.70;;;;;;;;;;6180542;28;20238;-66
2021/12/21 03:38:39;;;;;;;8.13;5.73;;;;;;;;;;6158194;28;20229;-66
2021/12/21 03:42:00;;;;;;;7.53;6.60;;;;;;;;;;6186018;28;20655;-67
2021/12/21 03:45:22;;;;;;;8.73;7.07;;;;;;;;;;6177838;28;20233;-66
2021/12/21 03:48:46;;;;;;;9.20;5.93;;;;;;;;;;6183692;28;20225;-66
2021/12/21 03:52:11;;;;;;;7.40;5.40;;;;;;;;;;6184045;28;20546;-67
2021/12/21 03:55:32;;;;;;;11.37;7.07;;;;;;;;;;6188816;28;20233;-67
2021/12/21 03:58:53;;;;;;;11.90;7.10;;;;;;;;;;6176288;28;20222;-66
2021/12/21 04:02:16;;;;;;;7.57;5.90;;;;;;;;;;6188428;28;20266;-68
2021/12/21 04:05:37;;;;;;;6.90;5.30;;;;;;;;;;6187752;28;20222;-67
2021/12/21 04:08:59;;;;;;;7.50;5.90;;;;;;;;;;6186268;28;21076;-67
2021/12/21 04:12:19;;;;;;;7.60;6.60;;;;;;;;;;6183764;28;20241;-66
2021/12/21 04:15:43;;;;;;;34.03;9.07;;;;;;;;;;6183566;28;20231;-67
2021/12/21 04:19:05;;;;;;;7.57;5.50;;;;;;;;;;6183220;28;20222;-67
2021/12/21 04:22:26;;;;;;;8.10;6.33;;;;;;;;;;6186046;28;20241;-67
2021/12/21 04:25:47;;;;;;;10.93;7.20;;;;;;;;;;6184454;28;20223;-66
2021/12/21 04:29:08;;;;;;;8.30;5.77;;;;;;;;;;6184102;28;20655;-67
2021/12/21 04:32:29;;;;;;;9.27;6.00;;;;;;;;;;6179542;28;20249;-66
2021/12/21 04:35:51;;;;;;;7.73;7.03;;;;;;;;;;6182105;28;20318;-67
2021/12/21 04:39:22;;;;;;;13.10;10.20;;;;;;;;;;6186242;28;20233;-67
2021/12/21 04:42:43;;;;;;;8.73;6.53;;;;;;;;;;6182871;28;20242;-67
2021/12/21 04:46:04;;;;;;;8.40;5.97;;;;;;;;;;6179587;28;20325;-67
2021/12/21 04:49:26;;;;;;;8.10;5.77;;;;;;;;;;6189095;28;20311;-66
2021/12/21 04:52:48;;;;;;;8.37;5.87;;;;;;;;;;6185542;28;20238;-67
2021/12/21 04:56:09;;;;;;;9.73;5.90;;;;;;;;;;6181113;28;20628;-66
2021/12/21 04:59:30;;;;;;;7.27;5.73;;;;;;;;;;6183584;28;20234;-66
2021/12/21 05:02:51;;;;;;;12.63;6.70;;;;;;;;;;6183073;28;20517;-67
2021/12/21 05:06:13;;;;;;;7.83;5.97;;;;;;;;;;6185504;28;20694;-66
2021/12/21 05:09:42;;;;;;;5.90;5.30;;;;;;;;;;6186729;28;20614;-66
2021/12/21 05:13:03;;;;;;;9.03;5.63;;;;;;;;;;6187972;28;20710;-67
2021/12/21 05:16:23;;;;;;;10.93;6.10;;;;;;;;;;6181501;28;20249;-65
2021/12/21 05:19:44;;;;;;;11.80;7.60;;;;;;;;;;6183585;28;20234;-66
2021/12/21 05:23:05;;;;;;;8.23;5.63;;;;;;;;;;6181689;28;20233;-66
2021/12/21 05:26:27;;;;;;;8.30;6.17;;;;;;;;;;6185077;28;20277;-66
2021/12/21 05:29:48;;;;;;;7.23;6.30;;;;;;;;;;6181888;28;20227;-66
2021/12/21 05:33:09;;;;;;;9.50;7.37;;;;;;;;;;6178833;28;20230;-67
2021/12/21 05:36:30;;;;;;;9.63;6.30;;;;;;;;;;6176982;28;20634;-66
2021/12/21 05:39:57;;;;;;;6.93;6.23;;;;;;;;;;6177588;28;20234;-66
2021/12/21 05:43:19;;;;;;;7.30;6.53;;;;;;;;;;6189074;28;20230;-67
2021/12/21 05:46:40;;;;;;;12.20;6.90;;;;;;;;;;6181410;28;20229;-67
2021/12/21 05:50:00;;;;;;;7.73;6.73;;;;;;;;;;6188715;28;20250;-67
2021/12/21 05:53:21;;;;;;;8.83;6.10;;;;;;;;;;6187979;28;20230;-67
2021/12/21 05:56:42;;;;;;;11.13;7.00;;;;;;;;;;6185682;28;20309;-66
2021/12/21 06:00:06;;;;;;;7.30;5.50;;;;;;;;;;6188595;28;20230;-67
2021/12/21 06:03:28;;;;;;;14.00;7.67;;;;;;;;;;6182742;28;20507;-66
2021/12/21 06:06:48;;;;;;;7.23;6.27;;;;;;;;;;6184569;28;20229;-66
2021/12/21 06:10:14;;;;;;;7.37;5.53;;;;;;;;;;6186180;28;21068;-66
2021/12/21 06:28:37;;;;;;;8.43;6.37;;;;;;;;;;6144114;28;20229;-66
2021/12/21 06:31:59;;;;;;;8.67;6.83;;;;;;;;;;6174197;28;20249;-66
2021/12/21 06:35:21;;;;;;;8.83;6.53;;;;;;;;;;6183263;28;20233;-67
2021/12/21 06:38:42;;;;;;;11.63;7.37;;;;;;;;;;6182211;28;20772;-67
2021/12/21 06:42:04;;;;;;;8.03;6.57;;;;;;;;;;6185846;28;20226;-67
2021/12/21 06:45:30;;;;;;;9.83;8.43;;;;;;;;;;6183318;28;20226;-65
2021/12/21 06:52:31;;;;;;;6.93;6.23;;;;;;;;;;6187140;28;20230;-66
2021/12/21 06:55:52;;;;;;;9.30;6.33;;;;;;;;;;6183931;28;20253;-66
2021/12/21 06:59:13;;;;;;;6.73;5.83;;;;;;;;;;6184913;28;20241;-67
2021/12/21 07:02:34;;;;;;;11.87;6.90;;;;;;;;;;6177245;28;20222;-66
2021/12/21 07:05:55;;;;;;;11.40;6.40;;;;;;;;;;6179502;28;20755;-67
2021/12/21 07:09:22;;;;;;;9.23;6.07;;;;;;;;;;6179648;28;20556;-66
2021/12/21 07:19:57;;;;;;;9.03;7.03;;;;;;;;;;6180300;28;20604;-65
2021/12/21 07:23:18;;;;;;;9.80;6.87;;;;;;;;;;6182562;28;20233;-66
2021/12/21 07:26:40;;;;;;;7.90;5.77;;;;;;;;;;6179498;28;20286;-67
2021/12/21 07:30:01;;;;;;;11.97;6.77;;;;;;;;;;6171562;28;20232;-66
2021/12/21 07:33:22;;;;;;;11.73;6.63;;;;;;;;;;6180024;28;20234;-67
2021/12/21 07:36:43;;;;;;;11.03;7.10;;;;;;;;;;6176186;28;20632;-66
2021/12/21 07:40:05;;;;;;;9.23;6.67;;;;;;;;;;6179032;28;20611;-66
2021/12/21 07:43:27;;;;;;;10.17;6.70;;;;;;;;;;6175393;28;20234;-67
2021/12/21 07:46:48;;;;;;;9.90;7.67;;;;;;;;;;6177011;28;20230;-67
2021/12/21 07:50:10;;;;;;;7.70;6.87;;;;;;;;;;6173270;28;20234;-67
2021/12/21 07:53:31;;;;;;;7.70;6.27;;;;;;;;;;6178468;28;20506;-65
2021/12/21 07:56:52;;;;;;;9.17;6.87;;;;;;;;;;6171354;28;20764;-65
2021/12/21 08:00:16;;;;;;;9.70;6.30;;;;;;;;;;6176674;28;20322;-66
2021/12/21 08:03:38;;;;;;;8.23;7.23;;;;;;;;;;6183835;28;20269;-66
2021/12/21 08:07:05;;;;;;;7.57;6.70;;;;;;;;;;6186238;28;20612;-65
2021/12/21 08:10:30;;;;;;;12.00;7.10;;;;;;;;;;6182091;28;20225;-66
2021/12/21 08:13:50;;;;;;;9.23;6.63;;;;;;;;;;6159610;28;20509;-66
2021/12/21 08:17:14;;;;;;;14.40;7.17;;;;;;;;;;6180125;28;20329;-66
2021/12/21 08:20:35;;;;;;;15.33;7.87;;;;;;;;;;6177947;28;20233;-65
2021/12/21 08:23:57;;;;;;;10.83;7.10;;;;;;;;;;6184467;28;20230;-66
2021/12/21 08:27:18;;;;;;;9.67;7.13;;;;;;;;;;6186079;28;20241;-66
2021/12/21 08:30:39;;;;;;;11.83;8.00;;;;;;;;;;6179277;28;20660;-66
2021/12/21 08:34:02;;;;;;;8.73;7.77;;;;;;;;;;6181651;28;20241;-66
2021/12/21 08:37:23;;;;;;;17.00;7.60;;;;;;;;;;6183476;28;20286;-66
2021/12/21 08:40:49;;;;;;;7.77;6.90;;;;;;;;;;6180706;28;20265;-66
2021/12/21 08:44:10;;;;;;;12.13;8.40;;;;;;;;;;6183366;28;20237;-66
2021/12/21 08:47:31;;;;;;;12.70;8.30;;;;;;;;;;6178615;28;20238;-66
2021/12/21 08:50:55;;;;;;;11.97;7.60;;;;;;;;;;6183060;28;20226;-66
2021/12/21 08:54:16;;;;;;;10.33;7.97;;;;;;;;;;6181363;28;20313;-66
2021/12/21 08:57:37;;;;;;;11.03;7.60;;;;;;;;;;6175841;28;20222;-66
2021/12/21 09:00:58;;;;;;;12.77;7.33;;;;;;;;;;6180779;28;20240;-66
2021/12/21 09:04:21;;;;;;;11.50;6.93;;;;;;;;;;6182096;28;20237;-67
2021/12/21 09:07:44;;;;;;;7.57;5.63;;;;;;;;;;6183116;28;20230;-65
2021/12/21 09:11:05;;;;;;;12.33;7.30;;;;;;;;;;6179734;28;20531;-65
2021/12/21 09:14:31;;;;;;;8.00;5.77;;;;;;;;;;6185042;28;20221;-66
2021/12/21 09:17:53;;;;;;;13.23;6.53;;;;;;;;;;6181948;28;20804;-66
2021/12/21 09:21:13;;;;;;;9.77;5.47;;;;;;;;;;6186502;28;20243;-65
2021/12/21 09:24:36;;;;;;;7.13;5.37;;;;;;;;;;6189517;28;20233;-66
2021/12/21 09:27:57;;;;;;;9.30;6.33;;;;;;;;;;6193457;28;20321;-66
2021/12/21 09:31:18;;;;;;;8.90;6.00;;;;;;;;;;6182987;28;20234;-66
2021/12/21 09:34:40;;;;;;;7.40;6.30;;;;;;;;;;6183398;28;20226;-65
2021/12/21 09:38:01;;;;;;;10.60;6.93;;;;;;;;;;6185818;28;20233;-65
2021/12/21 09:41:24;;;;;;;11.47;7.40;;;;;;;;;;6183598;28;20234;-66
2021/12/21 09:44:45;;;;;;;10.37;6.57;;;;;;;;;;6184708;28;20329;-66
2021/12/21 09:48:07;;;;;;;10.93;6.33;;;;;;;;;;6184958;28;20230;-66
2021/12/21 09:51:28;;;;;;;9.43;7.27;;;;;;;;;;6185397;28;20600;-67
2021/12/21 09:54:49;;;;;;;11.43;7.37;;;;;;;;;;6181910;28;20231;-65
2021/12/21 09:58:11;;;;;;;10.40;7.90;;;;;;;;;;6180103;28;20233;-65
2021/12/21 10:01:32;;;;;;;13.47;10.10;;;;;;;;;;6174472;28;20226;-65
2021/12/21 10:04:55;;;;;;;8.63;7.83;;;;;;;;;;6171151;28;20238;-67
2021/12/21 10:08:18;;;;;;;10.27;7.07;;;;;;;;;;6171513;28;20238;-66
2021/12/21 10:11:43;;;;;;;9.60;7.30;;;;;;;;;;6171101;28;20237;-66
2021/12/21 10:15:08;;;;;;;13.33;7.20;;;;;;;;;;6168512;28;20238;-66
2021/12/21 10:18:31;;;;;;;8.90;6.70;;;;;;;;;;6173867;28;20555;-68
2021/12/21 10:21:52;;;;;;;10.03;7.97;;;;;;;;;;6171744;28;20230;-68
2021/12/21 10:25:13;;;;;;;10.40;7.07;;;;;;;;;;6172280;28;20520;-67
2021/12/21 10:28:36;;;;;;;12.13;7.90;;;;;;;;;;6166145;28;20550;-65
2021/12/21 10:31:58;;;;;;;11.23;7.97;;;;;;;;;;6170513;28;20226;-65
2021/12/21 10:35:20;;;;;;;14.60;9.17;;;;;;;;;;6176870;28;20229;-66
2021/12/21 10:38:47;;;;;;;15.03;10.17;;;;;;;;;;6158091;28;20238;-65
2021/12/21 10:42:09;;;;;;;14.00;9.60;;;;;;;;;;6167014;28;20236;-65
2021/12/21 10:45:32;;;;;;;14.33;10.30;;;;;;;;;;6177171;28;20245;-66
2021/12/21 10:49:04;;;;;;;16.58;11.23;;;;;;;;;;6176994;28;20229;-66
2021/12/21 10:52:25;;;;;;;18.65;11.02;;;;;;;;;;6165366;28;20256;-65
2021/12/21 10:55:46;;;;;;;14.32;9.90;;;;;;;;;;6181566;28;20234;-66
2021/12/21 10:59:11;;;;;;;14.13;8.93;;;;;;;;;;6181486;28;20222;-66
2021/12/21 11:02:34;;;;;;;10.88;7.85;;;;;;;;;;6171850;28;20328;-66
2021/12/21 11:06:08;;;;;;;9.90;8.38;;;;;;;;;;6183993;28;20234;-65
2021/12/21 11:09:29;;;;;;;13.95;8.15;;;;;;;;;;6183091;28;20658;-66
2021/12/21 11:12:52;;;;;;;10.07;7.78;;;;;;;;;;6184374;28;20265;-67
2021/12/21 11:16:13;;;;;;;9.55;6.85;;;;;;;;;;6172253;28;20234;-65
2021/12/21 11:19:34;;;;;;;11.63;8.40;;;;;;;;;;6170614;28;20237;-65
2021/12/21 11:22:56;;;;;;;8.00;7.25;;;;;;;;;;6177134;28;20604;-65
2021/12/21 11:26:17;;;;;;;11.85;7.57;;;;;;;;;;6172390;28;20242;-65
2021/12/21 11:29:39;;;;;;;9.73;7.50;;;;;;;;;;6179258;28;20226;-64
2021/12/21 11:33:02;;;;;;;9.95;7.18;;;;;;;;;;6163272;28;20321;-66
2021/12/21 11:40:04;;;;;;;13.52;11.85;;;;;;;;;;6178849;28;20229;-66
2021/12/21 11:43:31;;;;;;;13.40;8.95;;;;;;;;;;6178279;28;20841;-66
2021/12/21 11:46:54;;;;;;;11.73;9.13;;;;;;;;;;6171374;28;20627;-64
2021/12/21 11:50:15;;;;;;;12.93;8.70;;;;;;;;;;6163111;28;20234;-65
2021/12/21 11:53:37;;;;;;;13.88;9.65;;;;;;;;;;6170895;28;20234;-65
2021/12/21 11:57:03;;;;;;;12.43;9.23;;;;;;;;;;6173317;28;20266;-65
2021/12/21 12:00:26;;;;;;;12.25;8.07;;;;;;;;;;6173887;28;20253;-64
2021/12/21 12:03:59;;;;;;;12.68;8.88;;;;;;;;;;6159211;28;20454;-65
2021/12/21 12:07:20;;;;;;;12.20;8.05;;;;;;;;;;6154102;28;20313;-65
2021/12/21 12:10:49;;;;;;;9.85;6.18;;;;;;;;;;6155706;28;20234;-66
2021/12/21 12:14:12;;;;;;;13.35;8.25;;;;;;;;;;6147597;28;20619;-66
2021/12/21 12:17:33;;;;;;;10.40;8.57;;;;;;;;;;6141908;28;20233;-65
2021/12/21 12:20:55;;;;;;;13.43;6.70;;;;;;;;;;6141730;28;20235;-66
2021/12/21 12:24:19;;;;;;;10.70;7.40;;;;;;;;;;6141859;28;21288;-66
2021/12/21 12:27:45;;;;;;;12.60;8.60;;;;;;;;;;6140858;28;20226;-65
2021/12/21 12:31:07;;;;;;;9.70;6.73;;;;;;;;;;6139002;28;20734;-65
2021/12/21 12:34:32;;;;;;;11.77;7.77;;;;;;;;;;6151891;28;20226;-65
2021/12/21 12:37:57;;;;;;;7.10;6.33;;;;;;;;;;6174730;28;20585;-66
2021/12/21 12:41:18;;;;;;;8.53;6.23;;;;;;;;;;6183342;28;20238;-66
2021/12/21 12:44:41;;;;;;;8.07;6.13;;;;;;;;;;6181180;28;20229;-66
2021/12/21 12:48:18;;;;;;;6.67;6.07;;;;;;;;;;6184524;28;20627;-66
2021/12/21 12:51:39;;;;;;;7.97;6.23;;;;;;;;;;6177849;28;20739;-64
2021/12/21 12:55:02;;;;;;;8.80;5.50;;;;;;;;;;6179105;28;20221;-66
2021/12/21 12:58:24;;;;;;;7.00;5.67;;;;;;;;;;6179315;28;20234;-65
2021/12/21 13:01:47;;;;;;;9.77;6.53;;;;;;;;;;6174024;28;20520;-65
2021/12/21 13:05:10;;;;;;;7.57;5.17;;;;;;;;;;6182372;28;20230;-65
2021/12/21 13:08:31;;;;;;;6.10;4.63;;;;;;;;;;6178847;28;20238;-65
2021/12/21 13:11:52;;;;;;;9.90;5.70;;;;;;;;;;6169770;28;20221;-64
2021/12/21 13:15:13;;;;;;;9.37;6.03;;;;;;;;;;6185595;28;20651;-64
2021/12/21 13:18:41;;;;;;;10.27;4.63;;;;;;;;;;6172739;28;20233;-63
2021/12/21 13:22:04;;;;;;;10.87;7.03;;;;;;;;;;6179857;28;20241;-63
2021/12/21 13:25:25;;;;;;;7.73;6.27;;;;;;;;;;6171748;28;20241;-64
2021/12/21 13:28:48;;;;;;;7.33;6.50;;;;;;;;;;6170090;28;20238;-63
2021/12/21 13:32:11;;;;;;;13.20;8.33;;;;;;;;;;6159717;28;20229;-64
2021/12/21 13:35:33;;;;;;;7.30;5.27;;;;;;;;;;6159286;28;20233;-64
2021/12/21 13:38:56;;;;;;;7.63;5.23;;;;;;;;;;6151357;28;20222;-64
2021/12/21 13:42:19;;;;;;;6.67;5.43;;;;;;;;;;6138146;28;20250;-62
2021/12/21 13:45:40;;;;;;;6.23;5.07;;;;;;;;;;6145747;28;20230;-63
2021/12/21 13:49:01;;;;;;;6.13;4.73;;;;;;;;;;6141423;28;20234;-63
2021/12/21 13:52:23;;;;;;;7.17;4.77;;;;;;;;;;6134269;28;20226;-64
2021/12/21 13:55:50;;;;;;;9.27;4.93;;;;;;;;;;6133728;28;20290;-65
2021/12/21 13:59:12;;;;;;;8.40;5.47;;;;;;;;;;6155672;28;20233;-64
2021/12/21 14:02:36;;;;;;;6.17;3.87;;;;;;;;;;6154300;28;20627;-63
2021/12/21 14:06:01;;;;;;;5.67;4.27;;;;;;;;;;6160660;28;20241;-64
2021/12/21 14:09:24;;;;;;;6.27;4.17;;;;;;;;;;6171063;28;20233;-63
2021/12/21 14:12:56;;;;;;;6.87;5.00;;;;;;;;;;6169273;28;20326;-64
2021/12/21 14:16:19;;;;;;;7.27;4.23;;;;;;;;;;6157481;28;20237;-64
2021/12/21 14:19:41;;;;;;;6.33;4.20;;;;;;;;;;6156791;28;20585;-64
2021/12/21 14:23:02;;;;;;;7.23;4.83;;;;;;;;;;6148494;28;20234;-64
2021/12/21 14:26:24;;;;;;;5.93;3.93;;;;;;;;;;6140806;28;21042;-64
2021/12/21 14:29:47;;;;;;;6.40;4.53;;;;;;;;;;6125234;28;20229;-64
2021/12/21 14:33:09;;;;;;;7.23;4.67;;;;;;;;;;6126371;28;21486;-63
2021/12/21 14:36:33;;;;;;;7.27;4.77;;;;;;;;;;6121367;28;20828;-63
2021/12/21 14:39:55;;;;;;;9.03;5.27;;;;;;;;;;6136387;28;20229;-64
2021/12/21 14:43:21;;;;;;;8.37;4.73;;;;;;;;;;6148626;28;20233;-64
2021/12/21 14:46:57;;;;;;;5.83;4.87;;;;;;;;;;6152710;28;20241;-64
2021/12/21 14:50:20;;;;;;;9.10;5.50;;;;;;;;;;6155857;28;20596;-62
2021/12/21 14:53:47;;;;;;;6.13;4.60;;;;;;;;;;6171593;28;20274;-63
2021/12/21 14:57:08;;;;;;;9.83;5.00;;;;;;;;;;6173467;28;20226;-63
2021/12/21 15:00:31;;;;;;;8.67;5.20;;;;;;;;;;6175113;28;20242;-62
2021/12/21 15:03:54;;;;;;;6.40;4.60;;;;;;;;;;6174481;28;20226;-63
2021/12/21 15:07:14;;;;;;;9.77;5.47;;;;;;;;;;6170218;28;20330;-64
2021/12/21 15:10:39;;;;;;;5.30;4.73;;;;;;;;;;6163412;28;20229;-64
2021/12/21 15:14:00;;;;;;;9.27;5.47;;;;;;;;;;6153273;28;20230;-62
2021/12/21 15:17:21;;;;;;;9.10;5.03;;;;;;;;;;6163585;28;20502;-62
2021/12/21 15:20:43;;;;;;;7.37;5.20;;;;;;;;;;6163017;28;21051;-63
2021/12/21 15:24:04;;;;;;;11.23;5.27;;;;;;;;;;6170796;28;20218;-62
2021/12/21 15:27:25;;;;;;;7.73;5.00;;;;;;;;;;6165509;28;20241;-63
2021/12/21 15:30:46;;;;;;;8.63;5.07;;;;;;;;;;6167860;28;20233;-64
2021/12/21 15:34:07;;;;;;;12.57;7.30;;;;;;;;;;6169006;28;20648;-64
2021/12/21 15:37:30;;;;;;;8.63;5.70;;;;;;;;;;6171004;28;20218;-64
2021/12/21 15:40:53;;;;;;;8.50;5.80;;;;;;;;;;6171744;28;20282;-63
2021/12/21 15:44:15;;;;;;;14.47;7.40;;;;;;;;;;6170263;28;20238;-63
2021/12/21 15:47:36;;;;;;;14.37;6.80;;;;;;;;;;6181285;28;20242;-62
2021/12/21 15:50:57;;;;;;;11.83;6.67;;;;;;;;;;6181184;28;20313;-64
2021/12/21 15:54:19;;;;;;;13.40;6.87;;;;;;;;;;6185178;28;20233;-64
2021/12/21 15:57:40;;;;;;;13.67;7.73;;;;;;;;;;6178871;28;20226;-63
2021/12/21 16:01:00;;;;;;;9.43;7.13;;;;;;;;;;6174889;28;20230;-63
2021/12/21 16:04:21;;;;;;;11.37;7.33;;;;;;;;;;6178184;28;20253;-63
2021/12/21 16:07:42;;;;;;;12.80;7.80;;;;;;;;;;6180783;28;20245;-63
2021/12/21 16:11:05;;;;;;;13.83;7.13;;;;;;;;;;6182093;28;20222;-63
2021/12/21 16:14:25;;;;;;;13.27;8.00;;;;;;;;;;6178625;28;20318;-63
2021/12/21 16:17:46;;;;;;;11.13;8.97;;;;;;;;;;6176303;28;20238;-62
2021/12/21 16:21:07;;;;;;;13.93;8.93;;;;;;;;;;6175578;28;20325;-62
2021/12/21 16:24:27;;;;;;;16.00;9.67;;;;;;;;;;6179427;28;20563;-63
2021/12/21 16:27:49;;;;;;;11.57;9.17;;;;;;;;;;6182960;28;20600;-63
2021/12/21 16:31:16;;;;;;;13.87;8.97;;;;;;;;;;6177770;28;20251;-63
2021/12/21 16:34:38;;;;;;;13.97;9.97;;;;;;;;;;6181036;28;20234;-63
2021/12/21 16:37:59;;;;;;;17.63;11.17;;;;;;;;;;6183263;28;20246;-63
2021/12/21 16:41:20;;;;;;;16.57;10.47;;;;;;;;;;6180867;28;20237;-62
2021/12/21 16:44:44;;;;;;;11.33;9.13;;;;;;;;;;6181118;28;20246;-64
2021/12/21 16:48:07;;;;;;;15.03;9.53;;;;;;;;;;6178805;28;20234;-62
2021/12/21 16:51:28;;;;;;;11.97;9.57;;;;;;;;;;6179724;28;20300;-63
2021/12/21 16:54:49;;;;;;;14.23;9.60;;;;;;;;;;6179375;28;20245;-62
2021/12/21 16:58:10;;;;;;;13.73;10.43;;;;;;;;;;6178426;28;20243;-63
2021/12/21 17:01:32;;;;;;;15.00;10.67;;;;;;;;;;6173744;28;20825;-65
2021/12/21 17:04:53;;;;;;;13.57;10.23;;;;;;;;;;6174382;28;20761;-63
2021/12/21 17:08:16;;;;;;;15.97;10.37;;;;;;;;;;6174694;28;20242;-63
2021/12/21 17:11:37;;;;;;;15.50;11.83;;;;;;;;;;6177599;28;20233;-63
2021/12/21 17:14:58;;;;;;;15.97;11.07;;;;;;;;;;6180148;28;20226;-63
2021/12/21 17:18:20;;;;;;;16.17;11.50;;;;;;;;;;6175896;28;20258;-63
2021/12/21 17:21:41;;;;;;;15.47;10.87;;;;;;;;;;6177960;28;20226;-63
2021/12/21 17:25:02;;;;;;;15.63;10.77;;;;;;;;;;6179299;28;20234;-65
2021/12/21 17:28:23;;;;;;;14.90;9.87;;;;;;;;;;6176950;28;20518;-66
2021/12/21 17:31:44;;;;;;;15.43;10.93;;;;;;;;;;6175476;28;20490;-64
2021/12/21 17:35:07;;;;;;;15.57;12.97;;;;;;;;;;6171566;28;20230;-65
2021/12/21 17:38:32;;;;;;;13.53;10.43;;;;;;;;;;6186595;28;20230;-66
2021/12/21 17:41:53;;;;;;;18.53;12.30;;;;;;;;;;6186077;28;20639;-64
2021/12/21 17:45:13;;;;;;;18.07;10.57;;;;;;;;;;6186752;28;20250;-64
2021/12/21 17:48:35;;;;;;;16.67;10.37;;;;;;;;;;6188837;28;20233;-64
2021/12/21 17:51:58;;;;;;;12.40;10.83;;;;;;;;;;6192338;28;20576;-64
2021/12/21 17:55:19;;;;;;;17.13;11.57;;;;;;;;;;6192096;28;20242;-65
2021/12/21 17:58:40;;;;;;;15.27;11.90;;;;;;;;;;6185459;28;20225;-64
2021/12/21 18:02:01;;;;;;;13.83;10.53;;;;;;;;;;6179925;28;20514;-63
2021/12/21 18:05:22;;;;;;;17.57;12.27;;;;;;;;;;6181107;28;20259;-64
2021/12/21 18:08:44;;;;;;;16.77;12.63;;;;;;;;;;6188052;28;20250;-64
2021/12/21 18:12:07;;;;;;;19.50;15.07;;;;;;;;;;6176339;28;20233;-63
2021/12/21 18:15:28;;;;;;;18.93;13.90;;;;;;;;;;6185539;28;20226;-63
2021/12/21 18:18:49;;;;;;;17.90;12.73;;;;;;;;;;6181579;28;20306;-63
2021/12/21 18:22:11;;;;;;;15.53;13.00;;;;;;;;;;6185875;28;20233;-63
2021/12/21 18:25:34;;;;;;;22.37;15.40;;;;;;;;;;6188732;28;20234;-64
2021/12/21 18:28:54;;;;;;;17.20;14.33;;;;;;;;;;6182551;28;20261;-63
2021/12/21 18:32:15;;;;;;;19.37;16.30;;;;;;;;;;6176057;28;20308;-65
2021/12/21 18:35:37;;;;;;;22.93;15.80;;;;;;;;;;6188017;28;20222;-66
2021/12/21 18:38:58;;;;;;;20.80;15.73;;;;;;;;;;6184815;28;20221;-66
2021/12/21 18:42:20;;;;;;;18.20;14.67;;;;;;;;;;6180763;28;20230;-65
2021/12/21 18:45:41;;;;;;;23.80;14.57;;;;;;;;;;6179216;28;20226;-64
2021/12/21 18:49:03;;;;;;;21.97;15.23;;;;;;;;;;6176915;28;20233;-65
2021/12/21 18:52:24;;;;;;;22.30;15.90;;;;;;;;;;6170692;28;20234;-65
2021/12/21 18:55:45;;;;;;;19.60;15.00;;;;;;;;;;6175339;28;20509;-64
2021/12/21 18:59:08;;;;;;;17.20;15.30;;;;;;;;;;6186910;28;20233;-65
2021/12/21 19:02:28;;;;;;;16.57;14.87;;;;;;;;;;6179974;28;20233;-63
2021/12/21 19:05:49;;;;;;;20.73;15.27;;;;;;;;;;6176601;28;20230;-65
2021/12/21 19:09:12;;;;;;;19.47;16.03;;;;;;;;;;6179552;28;20302;-66
2021/12/21 19:12:33;;;;;;;21.10;15.43;;;;;;;;;;6181781;28;20324;-64
2021/12/21 19:15:56;;;;;;;21.53;14.60;;;;;;;;;;6180538;28;20230;-64
2021/12/21 19:19:16;;;;;;;16.50;13.83;;;;;;;;;;6179543;28;20511;-66
2021/12/21 19:22:40;;;;;;;17.10;15.00;;;;;;;;;;6182175;28;20229;-65
2021/12/21 19:26:01;;;;;;;18.23;14.27;;;;;;;;;;6175418;28;20615;-64
2021/12/21 19:29:22;;;;;;;15.30;13.60;;;;;;;;;;6181013;28;20250;-64
2021/12/21 19:32:45;;;;;;;16.53;13.83;;;;;;;;;;6176298;28;20245;-66
2021/12/21 19:36:07;;;;;;;15.83;14.13;;;;;;;;;;6175048;28;20233;-64
2021/12/21 19:39:27;;;;;;;17.00;14.17;;;;;;;;;;6177493;28;20230;-66
2021/12/21 19:42:48;;;;;;;20.30;16.13;;;;;;;;;;6179346;28;20514;-65
2021/12/21 19:46:09;;;;;;;18.43;16.27;;;;;;;;;;6181477;28;20626;-66
2021/12/21 19:49:31;;;;;;;21.20;14.93;;;;;;;;;;6175768;28;20584;-65
2021/12/21 19:52:54;;;;;;;18.70;15.43;;;;;;;;;;6180898;28;20261;-64
2021/12/21 19:56:15;;;;;;;20.20;15.77;;;;;;;;;;6173714;28;20269;-65
2021/12/21 19:59:36;;;;;;;23.90;17.50;;;;;;;;;;6181657;28;20910;-65
2021/12/21 20:02:58;;;;;;;18.00;16.13;;;;;;;;;;6179362;28;20234;-64
2021/12/21 20:06:20;;;;;;;20.67;16.80;;;;;;;;;;6178616;28;20316;-64
2021/12/21 20:09:42;;;;;;;23.17;16.57;;;;;;;;;;6174303;28;20233;-62
2021/12/21 20:13:06;;;;;;;19.77;16.03;;;;;;;;;;6183540;28;21337;-63
2021/12/21 20:16:28;;;;;;;19.50;17.10;;;;;;;;;;6178037;28;20245;-64
2021/12/21 20:19:50;;;;;;;18.50;16.17;;;;;;;;;;6184395;28;20226;-64
2021/12/21 20:23:13;;;;;;;21.30;17.03;;;;;;;;;;6175265;28;20261;-64
2021/12/21 20:26:35;;;;;;;17.87;15.40;;;;;;;;;;6165388;28;20257;-64
2021/12/21 20:29:56;;;;;;;21.77;17.20;;;;;;;;;;6161031;28;20674;-64
2021/12/21 20:33:17;;;;;;;23.47;19.10;;;;;;;;;;6164062;28;20345;-64
2021/12/21 20:36:38;;;;;;;18.57;15.10;;;;;;;;;;6170037;28;20245;-63
2021/12/21 20:40:00;;;;;;;18.70;16.67;;;;;;;;;;6163274;28;20595;-64